createdAt,value
2023-03-27T00:01:53.127Z,9.97
2023-03-27T00:04:28.325Z,10.96
2023-03-27T00:07:01.268Z,10.44
2023-03-27T00:09:37.224Z,11.20
2023-03-27T00:12:11.168Z,10.58
2023-03-27T00:14:45.910Z,10.69
2023-03-27T00:17:19.714Z,11.36
2023-03-27T00:19:52.826Z,10.86
2023-03-27T00:22:25.905Z,10.89
2023-03-27T00:25:01.499Z,11.15
2023-03-27T00:27:34.857Z,10.88
2023-03-27T00:30:09.119Z,10.38
2023-03-27T00:32:42.102Z,10.62
2023-03-27T00:35:15.354Z,10.20
2023-03-27T00:37:48.456Z,9.87
2023-03-27T00:40:22.915Z,10.04
2023-03-27T00:42:57.886Z,9.51
2023-03-27T00:45:33.382Z,9.64
2023-03-27T00:48:09.002Z,10.29
2023-03-27T00:50:44.120Z,9.39
2023-03-27T00:53:19.010Z,10.13
2023-03-27T00:55:55.757Z,10.05
2023-03-27T00:58:30.787Z,10.47
2023-03-27T01:01:04.000Z,10.53
2023-03-27T01:03:37.108Z,9.62
2023-03-27T01:06:13.999Z,9.03
2023-03-27T01:08:48.217Z,9.07
2023-03-27T01:11:31.427Z,9.09
2023-03-27T01:14:16.674Z,9.21
2023-03-27T01:16:57.623Z,9.11
2023-03-27T01:19:41.915Z,9.32
2023-03-27T01:22:25.339Z,9.55
2023-03-27T01:25:16.902Z,9.37
2023-03-27T01:28:03.043Z,9.47
2023-03-27T01:30:39.611Z,9.50
2023-03-27T01:33:26.646Z,9.46
2023-03-27T01:36:21.737Z,9.15
2023-03-27T01:39:11.086Z,9.28
2023-03-27T01:41:51.327Z,9.32
2023-03-27T01:44:43.098Z,9.03
2023-03-27T01:47:22.282Z,9.03
2023-03-27T01:49:58.392Z,8.92
2023-03-27T01:52:34.241Z,9.13
2023-03-27T01:55:11.678Z,8.88
2023-03-27T01:57:50.608Z,8.87
2023-03-27T02:00:26.985Z,9.00
2023-03-27T02:03:24.587Z,9.01
2023-03-27T02:06:01.572Z,9.11
2023-03-27T02:08:38.457Z,9.26
2023-03-27T02:11:12.085Z,9.20
2023-03-27T02:13:49.874Z,9.64
2023-03-27T02:16:24.740Z,9.44
2023-03-27T02:18:59.874Z,9.49
2023-03-27T02:21:32.863Z,9.93
2023-03-27T02:24:06.370Z,10.03
2023-03-27T02:26:39.652Z,10.38
2023-03-27T02:29:26.473Z,10.17
2023-03-27T02:32:09.093Z,10.42
2023-03-27T02:34:50.458Z,10.64
2023-03-27T02:37:32.418Z,10.97
2023-03-27T02:40:13.697Z,11.04
2023-03-27T02:42:54.193Z,11.28
2023-03-27T02:45:31.829Z,11.60
2023-03-27T02:48:07.790Z,11.59
2023-03-27T02:50:45.263Z,11.49
2023-03-27T02:53:20.144Z,11.46
2023-03-27T02:55:54.877Z,11.30
2023-03-27T02:58:32.261Z,11.14
2023-03-27T03:01:10.765Z,11.24
2023-03-27T03:03:53.679Z,11.18
2023-03-27T03:06:30.138Z,11.17
2023-03-27T03:09:06.034Z,11.30
2023-03-27T03:11:40.883Z,11.22
2023-03-27T03:14:14.743Z,11.26
2023-03-27T03:16:49.724Z,11.24
2023-03-27T03:19:23.979Z,11.53
2023-03-27T03:21:57.127Z,11.56
2023-03-27T03:24:30.550Z,11.49
2023-03-27T03:27:05.723Z,11.61
2023-03-27T03:29:38.787Z,11.50
2023-03-27T03:32:13.298Z,11.27
2023-03-27T03:34:46.768Z,11.26
2023-03-27T03:37:20.985Z,11.57
2023-03-27T03:39:54.114Z,11.54
2023-03-27T03:42:26.963Z,11.52
2023-03-27T03:44:59.969Z,11.41
2023-03-27T03:47:34.452Z,11.39
2023-03-27T03:50:07.807Z,11.87
2023-03-27T03:52:41.742Z,11.47
2023-03-27T03:55:16.015Z,11.43
2023-03-27T03:57:49.082Z,11.34
2023-03-27T04:00:22.944Z,11.22
2023-03-27T04:02:57.640Z,11.44
2023-03-27T04:05:31.830Z,11.23
2023-03-27T04:08:07.338Z,11.23
2023-03-27T04:10:41.497Z,11.17
2023-03-27T04:13:15.631Z,11.10
2023-03-27T04:15:48.986Z,11.08
2023-03-27T04:18:32.812Z,11.10
2023-03-27T04:21:06.413Z,10.98
2023-03-27T04:23:39.385Z,10.96
2023-03-27T04:26:13.106Z,10.87
2023-03-27T04:28:46.465Z,10.82
2023-03-27T04:31:19.444Z,10.97
2023-03-27T04:33:54.171Z,11.06
2023-03-27T04:36:28.466Z,10.97
2023-03-27T04:39:13.661Z,10.65
2023-03-27T04:41:49.513Z,10.69
2023-03-27T04:44:22.940Z,10.63
2023-03-27T04:46:56.494Z,10.54
2023-03-27T04:49:30.878Z,10.28
2023-03-27T04:52:04.255Z,10.35
2023-03-27T04:54:37.450Z,10.02
2023-03-27T04:57:10.917Z,9.91
2023-03-27T04:59:44.747Z,9.98
2023-03-27T05:02:17.864Z,10.18
2023-03-27T05:04:52.254Z,10.23
2023-03-27T05:07:26.754Z,10.34
2023-03-27T05:10:00.033Z,10.90
2023-03-27T05:12:34.239Z,10.76
2023-03-27T05:15:09.269Z,10.67
2023-03-27T05:17:43.567Z,10.70
2023-03-27T05:20:18.141Z,10.76
2023-03-27T05:22:53.722Z,10.63
2023-03-27T05:25:27.374Z,11.04
2023-03-27T05:28:01.543Z,11.40
2023-03-27T05:30:34.630Z,11.74
2023-03-27T05:33:08.173Z,12.02
2023-03-27T05:35:43.275Z,12.24
2023-03-27T05:38:16.959Z,12.42
2023-03-27T05:40:52.420Z,12.13
2023-03-27T05:43:25.651Z,11.98
2023-03-27T05:45:58.655Z,11.75
2023-03-27T05:48:31.802Z,11.84
2023-03-27T05:51:06.600Z,11.93
2023-03-27T05:53:40.329Z,11.93
2023-03-27T05:56:14.318Z,12.42
2023-03-27T05:58:48.156Z,12.62
2023-03-27T06:01:23.312Z,12.67
2023-03-27T06:03:56.636Z,12.69
2023-03-27T06:06:32.866Z,12.67
2023-03-27T06:09:07.807Z,12.79
2023-03-27T06:11:40.919Z,12.79
2023-03-27T06:17:19.924Z,12.82
2023-03-27T06:19:53.451Z,12.82
2023-03-27T06:22:27.993Z,12.91
2023-03-27T06:25:00.908Z,12.89
2023-03-27T06:27:34.021Z,13.13
2023-03-27T06:30:11.169Z,13.29
2023-03-27T06:32:45.418Z,13.49
2023-03-27T06:35:19.231Z,13.52
2023-03-27T06:37:55.541Z,13.71
2023-03-27T06:40:29.826Z,13.67
2023-03-27T06:43:03.827Z,13.67
2023-03-27T06:45:38.698Z,13.79
2023-03-27T06:48:20.528Z,14.00
2023-03-27T06:50:55.632Z,13.95
2023-03-27T06:53:33.195Z,14.12
2023-03-27T06:56:10.024Z,14.28
2023-03-27T06:58:43.454Z,14.31
2023-03-27T07:01:16.643Z,14.23
2023-03-27T07:03:49.667Z,14.34
2023-03-27T07:06:22.557Z,14.44
2023-03-27T07:08:57.471Z,14.39
2023-03-27T07:11:32.001Z,14.48
2023-03-27T07:14:06.327Z,14.68
2023-03-27T07:16:39.414Z,14.85
2023-03-27T07:19:12.569Z,15.01
2023-03-27T07:21:45.723Z,15.11
2023-03-27T07:24:20.124Z,15.37
2023-03-27T07:26:53.167Z,15.65
2023-03-27T07:29:26.618Z,15.54
2023-03-27T07:32:04.336Z,15.42
2023-03-27T07:34:39.992Z,15.51
2023-03-27T07:37:14.574Z,15.49
2023-03-27T07:39:49.396Z,15.40
2023-03-27T07:42:22.749Z,15.33
2023-03-27T07:44:55.649Z,15.33
2023-03-27T07:47:28.699Z,15.35
2023-03-27T07:50:02.710Z,15.32
2023-03-27T07:52:36.770Z,15.34
2023-03-27T07:55:14.227Z,15.23
2023-03-27T07:57:59.302Z,15.22
2023-03-27T08:00:35.532Z,15.27
2023-03-27T08:03:10.018Z,15.18
2023-03-27T08:05:43.491Z,15.09
2023-03-27T08:08:17.034Z,15.11
2023-03-27T08:10:52.094Z,15.14
2023-03-27T08:13:26.004Z,15.21
2023-03-27T08:16:06.303Z,15.34
2023-03-27T08:18:39.637Z,15.63
2023-03-27T08:21:12.716Z,15.72
2023-03-27T08:23:46.130Z,15.95
2023-03-27T08:26:20.945Z,16.03
2023-03-27T08:28:56.205Z,15.99
2023-03-27T08:31:31.285Z,15.94
2023-03-27T08:34:04.659Z,15.85
2023-03-27T08:36:38.336Z,15.78
2023-03-27T08:39:11.570Z,15.75
2023-03-27T08:41:50.616Z,15.76
2023-03-27T08:44:25.877Z,15.70
2023-03-27T08:47:01.559Z,15.67
2023-03-27T08:49:35.922Z,15.59
2023-03-27T08:52:15.207Z,15.55
2023-03-27T08:54:53.620Z,15.52
2023-03-27T08:57:28.692Z,15.59
2023-03-27T09:00:04.465Z,15.47
2023-03-27T09:02:44.966Z,15.53
2023-03-27T09:05:19.720Z,15.51
2023-03-27T09:07:57.424Z,15.46
2023-03-27T09:10:35.412Z,15.49
2023-03-27T09:13:12.745Z,15.50
2023-03-27T09:15:49.830Z,15.56
2023-03-27T09:18:27.537Z,15.38
2023-03-27T09:21:03.554Z,15.73
2023-03-27T09:23:39.747Z,15.86
2023-03-27T09:26:14.969Z,15.92
2023-03-27T09:28:51.929Z,16.29
2023-03-27T09:31:26.435Z,16.58
2023-03-27T09:34:02.184Z,16.72
2023-03-27T09:36:36.005Z,17.13
2023-03-27T09:39:09.955Z,17.33
2023-03-27T09:41:45.630Z,17.64
2023-03-27T09:44:25.481Z,17.70
2023-03-27T09:47:02.671Z,17.67
2023-03-27T09:49:36.109Z,17.73
2023-03-27T09:52:09.031Z,17.74
2023-03-27T09:54:51.648Z,17.81
2023-03-27T09:57:32.255Z,18.02
2023-03-27T10:00:15.452Z,17.97
2023-03-27T10:02:48.948Z,18.21
2023-03-27T10:05:23.166Z,18.36
2023-03-27T10:07:56.066Z,18.47
2023-03-27T10:10:32.565Z,18.44
2023-03-27T10:13:07.524Z,18.64
2023-03-27T10:15:42.653Z,18.66
2023-03-27T10:18:24.191Z,18.58
2023-03-27T10:20:59.026Z,18.79
2023-03-27T10:23:42.228Z,18.80
2023-03-27T10:26:18.768Z,18.74
2023-03-27T10:28:52.789Z,18.76
2023-03-27T10:31:29.622Z,18.76
2023-03-27T10:34:03.577Z,18.64
2023-03-27T10:36:37.993Z,18.52
2023-03-27T10:39:12.965Z,18.45
2023-03-27T10:41:48.881Z,18.41
2023-03-27T10:44:25.698Z,18.25
2023-03-27T10:47:00.424Z,18.29
2023-03-27T10:49:39.401Z,18.42
2023-03-27T10:52:16.988Z,18.31
2023-03-27T10:54:56.276Z,18.40
2023-03-27T10:57:30.605Z,18.33
2023-03-27T11:00:10.632Z,18.41
2023-03-27T11:02:48.985Z,18.29
2023-03-27T11:05:24.769Z,18.36
2023-03-27T11:08:03.857Z,18.24
2023-03-27T11:10:40.897Z,18.34
2023-03-27T11:13:16.452Z,18.33
2023-03-27T11:15:54.095Z,18.35
2023-03-27T11:18:29.959Z,18.38
2023-03-27T11:21:04.731Z,18.23
2023-03-27T11:23:38.897Z,18.22
2023-03-27T11:26:13.136Z,18.23
2023-03-27T11:28:51.613Z,18.48
2023-03-27T11:31:34.337Z,18.64
2023-03-27T11:34:12.379Z,18.36
2023-03-27T11:36:48.461Z,18.28
2023-03-27T11:39:27.252Z,18.23
2023-03-27T11:42:05.249Z,18.36
2023-03-27T11:44:38.408Z,18.42
2023-03-27T11:47:25.092Z,18.49
2023-03-27T11:50:16.532Z,18.42
2023-03-27T11:52:57.590Z,18.50
2023-03-27T11:55:35.603Z,18.51
2023-03-27T11:58:15.909Z,18.51
2023-03-27T12:00:51.200Z,18.55
2023-03-27T12:03:37.856Z,18.49
2023-03-27T12:06:15.652Z,18.39
2023-03-27T12:08:59.585Z,18.47
2023-03-27T12:11:33.355Z,18.27
2023-03-27T12:14:23.874Z,18.32
2023-03-27T12:17:04.209Z,18.39
2023-03-27T12:19:49.683Z,18.30
2023-03-27T12:22:29.542Z,18.37
2023-03-27T12:25:16.974Z,18.42
2023-03-27T12:27:55.723Z,18.51
2023-03-27T12:30:34.302Z,18.41
2023-03-27T12:33:18.204Z,18.18
2023-03-27T12:35:53.478Z,18.40
2023-03-27T12:38:28.830Z,18.38
2023-03-27T12:41:05.493Z,18.37
2023-03-27T12:43:41.204Z,18.24
2023-03-27T12:46:31.848Z,18.30
2023-03-27T12:49:34.149Z,18.45
2023-03-27T12:52:15.138Z,18.16
2023-03-27T12:55:09.322Z,18.29
2023-03-27T12:57:44.663Z,18.41
2023-03-27T13:00:21.927Z,18.46
2023-03-27T13:03:09.638Z,18.39
2023-03-27T13:06:12.701Z,18.56
2023-03-27T13:08:54.660Z,18.42
2023-03-27T13:11:32.874Z,18.44
2023-03-27T13:14:15.411Z,18.39
2023-03-27T13:16:57.189Z,18.23
2023-03-27T13:19:39.714Z,18.29
2023-03-27T13:22:31.996Z,18.26
2023-03-27T13:25:17.515Z,18.27
2023-03-27T13:28:08.480Z,18.24
2023-03-27T13:30:45.238Z,18.35
2023-03-27T13:33:19.404Z,18.29
2023-03-27T13:36:07.647Z,18.28
2023-03-27T13:38:49.244Z,18.46
2023-03-27T13:41:41.490Z,18.38
2023-03-27T13:44:16.112Z,18.29
2023-03-27T13:46:53.237Z,18.46
2023-03-27T13:49:42.213Z,18.24
2023-03-27T13:52:32.630Z,18.34
2023-03-27T13:55:27.891Z,18.15
2023-03-27T13:58:10.831Z,18.32
2023-03-27T14:01:01.819Z,18.17
2023-03-27T14:03:57.761Z,18.22
2023-03-27T14:07:02.513Z,18.11
2023-03-27T14:09:45.473Z,18.04
2023-03-27T14:12:21.307Z,18.03
2023-03-27T14:15:10.620Z,18.06
2023-03-27T14:18:04.289Z,17.90
2023-03-27T14:20:41.284Z,17.96
2023-03-27T14:23:17.400Z,17.90
2023-03-27T14:25:54.711Z,17.88
2023-03-27T14:28:31.651Z,17.77
2023-03-27T14:31:07.329Z,17.74
2023-03-27T14:33:49.282Z,17.66
2023-03-27T14:36:26.108Z,17.73
2023-03-27T14:39:02.430Z,17.67
2023-03-27T14:41:35.942Z,17.63
2023-03-27T14:44:09.240Z,16.28
2023-03-27T14:46:45.241Z,15.38
2023-03-27T14:49:20.786Z,14.81
2023-03-27T14:52:01.189Z,14.26
2023-03-27T14:54:44.597Z,13.72
2023-03-27T14:57:22.377Z,13.33
2023-03-27T14:59:55.865Z,13.28
2023-03-27T15:02:31.880Z,12.89
2023-03-27T15:05:09.713Z,13.06
2023-03-27T15:07:45.125Z,13.09
2023-03-27T15:10:22.579Z,12.82
2023-03-27T15:12:57.281Z,12.74
2023-03-27T15:15:38.921Z,12.34
2023-03-27T15:18:15.321Z,12.51
2023-03-27T15:20:50.511Z,11.70
2023-03-27T15:23:28.542Z,11.60
2023-03-27T15:26:03.010Z,11.75
2023-03-27T15:28:38.404Z,11.41
2023-03-27T15:31:11.923Z,10.96
2023-03-27T15:33:52.559Z,10.49
2023-03-27T15:36:28.647Z,10.47
2023-03-27T15:39:04.357Z,10.33
2023-03-27T15:41:44.173Z,10.13
2023-03-27T15:44:19.088Z,9.81
2023-03-27T15:46:54.313Z,9.69
2023-03-27T15:49:29.244Z,9.71
2023-03-27T15:52:22.496Z,10.12
2023-03-27T15:54:57.313Z,10.09
2023-03-27T15:57:30.754Z,9.91
2023-03-27T16:00:10.049Z,9.68
2023-03-27T16:02:43.612Z,9.63
2023-03-27T16:05:17.692Z,9.77
2023-03-27T16:07:50.697Z,9.50
2023-03-27T16:10:32.710Z,9.89
2023-03-27T16:13:09.103Z,9.83
2023-03-27T16:15:45.038Z,9.92
2023-03-27T16:18:19.930Z,10.16
2023-03-27T16:20:53.486Z,10.23
2023-03-27T16:23:26.853Z,10.24
2023-03-27T16:26:02.624Z,10.23
2023-03-27T16:28:36.540Z,10.37
2023-03-27T16:31:13.430Z,10.26
2023-03-27T16:33:47.166Z,10.91
2023-03-27T16:36:22.903Z,10.82
2023-03-27T16:38:56.680Z,10.79
2023-03-27T16:41:31.555Z,10.50
2023-03-27T16:44:05.002Z,10.96
2023-03-27T16:46:38.215Z,10.74
2023-03-27T16:49:12.516Z,10.78
2023-03-27T16:51:45.848Z,11.50
2023-03-27T16:54:21.204Z,10.83
2023-03-27T16:56:55.628Z,11.06
2023-03-27T16:59:29.376Z,11.32
2023-03-27T17:02:02.639Z,11.50
2023-03-27T17:04:37.742Z,11.74
2023-03-27T17:07:11.703Z,11.02
2023-03-27T17:09:44.838Z,10.41
2023-03-27T17:12:20.268Z,10.77
2023-03-27T17:14:53.987Z,11.44
2023-03-27T17:17:27.686Z,10.90
2023-03-27T17:20:01.358Z,10.81
2023-03-27T17:22:34.950Z,10.72
2023-03-27T17:25:09.982Z,10.63
2023-03-27T17:27:44.596Z,10.59
2023-03-27T17:30:26.888Z,10.52
2023-03-27T17:33:08.615Z,11.16
2023-03-27T17:35:42.470Z,11.21
2023-03-27T17:38:19.038Z,11.67
2023-03-27T17:40:52.311Z,11.38
2023-03-27T17:43:27.263Z,10.89
2023-03-27T17:46:01.025Z,10.68
2023-03-27T17:48:34.411Z,10.96
2023-03-27T17:51:09.679Z,10.92
2023-03-27T17:53:43.265Z,11.71
2023-03-27T17:56:16.627Z,11.79
2023-03-27T17:58:51.180Z,10.81
2023-03-27T18:01:25.364Z,10.72
2023-03-27T18:04:00.613Z,11.07
2023-03-27T18:06:34.057Z,10.70
2023-03-27T18:09:07.471Z,10.55
2023-03-27T18:11:40.945Z,10.55
2023-03-27T18:14:15.615Z,10.66
2023-03-27T18:16:49.173Z,10.81
2023-03-27T18:19:24.103Z,11.47
2023-03-27T18:21:57.142Z,11.53
2023-03-27T18:24:30.718Z,11.02
2023-03-27T18:27:04.138Z,10.88
2023-03-27T18:29:38.465Z,10.75
2023-03-27T18:32:13.533Z,10.66
2023-03-27T18:34:46.806Z,10.43
2023-03-27T18:37:21.376Z,10.42
2023-03-27T18:39:54.729Z,10.76
2023-03-27T18:42:28.118Z,11.01
2023-03-27T18:45:03.165Z,10.59
2023-03-27T18:47:37.054Z,10.97
2023-03-27T18:50:10.806Z,11.77
2023-03-27T18:52:44.713Z,11.22
2023-03-27T18:55:18.442Z,10.52
2023-03-27T18:57:51.923Z,10.51
2023-03-27T19:00:27.048Z,10.36
2023-03-27T19:03:01.152Z,10.40
2023-03-27T19:05:36.263Z,10.37
2023-03-27T19:08:10.356Z,10.10
2023-03-27T19:10:44.315Z,10.13
2023-03-27T19:13:18.207Z,10.05
2023-03-27T19:15:53.180Z,9.87
2023-03-27T19:18:30.193Z,9.97
2023-03-27T19:21:03.812Z,9.81
2023-03-27T19:23:36.833Z,10.07
2023-03-27T19:26:12.359Z,10.10
2023-03-27T19:28:47.686Z,9.92
2023-03-27T19:31:22.953Z,10.10
2023-03-27T19:33:57.091Z,10.13
2023-03-27T19:36:31.329Z,10.38
2023-03-27T19:39:05.868Z,10.30
2023-03-27T19:41:39.474Z,9.99
2023-03-27T19:44:14.351Z,10.76
2023-03-27T19:46:49.079Z,10.72
2023-03-27T19:49:22.440Z,11.18
2023-03-27T19:51:55.803Z,11.09
2023-03-27T19:54:30.721Z,11.09
2023-03-27T19:57:05.674Z,10.47
2023-03-27T19:59:39.018Z,10.40
2023-03-27T20:02:13.954Z,10.58
2023-03-27T20:04:47.098Z,10.92
2023-03-27T20:07:20.170Z,10.89
2023-03-27T20:09:53.110Z,10.91
2023-03-27T20:12:33.042Z,10.59
2023-03-27T20:15:12.317Z,10.20
2023-03-27T20:17:49.209Z,10.66
2023-03-27T20:20:22.548Z,10.20
2023-03-27T20:22:58.241Z,10.79
2023-03-27T20:25:33.869Z,11.06
2023-03-27T20:28:07.413Z,11.10
2023-03-27T20:30:40.385Z,10.65
2023-03-27T20:33:14.682Z,11.00
2023-03-27T20:35:47.962Z,10.70
2023-03-27T20:38:22.933Z,10.77
2023-03-27T20:40:56.786Z,10.39
2023-03-27T20:43:30.981Z,9.96
2023-03-27T20:46:04.852Z,9.93
2023-03-27T20:48:41.757Z,10.48
2023-03-27T20:51:15.693Z,10.13
2023-03-27T20:53:54.146Z,10.34
2023-03-27T20:56:27.285Z,10.73
2023-03-27T20:59:01.036Z,11.11
2023-03-27T21:01:34.459Z,10.17
2023-03-27T21:04:09.848Z,9.70
2023-03-27T21:06:43.406Z,10.09
2023-03-27T21:09:16.372Z,9.59
2023-03-27T21:12:01.209Z,9.85
2023-03-27T21:14:35.113Z,9.83
2023-03-27T21:17:08.514Z,9.81
2023-03-27T21:19:43.464Z,9.54
2023-03-27T21:22:16.608Z,10.05
2023-03-27T21:24:49.671Z,9.70
2023-03-27T21:27:23.201Z,9.89
2023-03-27T21:29:56.323Z,9.86
2023-03-27T21:32:29.338Z,10.29
2023-03-27T21:35:03.901Z,9.65
2023-03-27T21:37:36.925Z,9.93
2023-03-27T21:40:10.293Z,10.14
2023-03-27T21:42:43.808Z,10.15
2023-03-27T21:45:16.876Z,10.28
2023-03-27T21:47:51.091Z,10.00
2023-03-27T21:50:25.374Z,9.67
2023-03-27T21:52:58.296Z,9.80
2023-03-27T21:55:31.321Z,10.25
2023-03-27T21:58:04.588Z,10.32
2023-03-27T22:00:37.515Z,9.86
2023-03-27T22:03:10.407Z,9.55
2023-03-27T22:05:47.437Z,9.65
2023-03-27T22:08:25.358Z,9.79
2023-03-27T22:10:59.332Z,9.52
2023-03-27T22:13:32.931Z,9.44
2023-03-27T22:16:10.840Z,9.41
2023-03-27T22:18:44.195Z,9.32
2023-03-27T22:21:20.161Z,9.85
2023-03-27T22:23:53.896Z,9.80
2023-03-27T22:26:28.111Z,9.73
2023-03-27T22:29:01.161Z,10.37
2023-03-27T22:31:34.210Z,9.49
2023-03-27T22:34:07.265Z,9.80
2023-03-27T22:36:41.822Z,9.39
2023-03-27T22:39:14.844Z,9.54
2023-03-27T22:41:47.745Z,9.39
2023-03-27T22:44:21.592Z,9.71
2023-03-27T22:46:54.571Z,9.56
2023-03-27T22:49:27.883Z,9.80
2023-03-27T22:52:02.616Z,9.93
2023-03-27T22:54:35.661Z,9.61
2023-03-27T22:57:08.807Z,9.49
2023-03-27T22:59:41.870Z,9.36
2023-03-27T23:02:14.899Z,9.42
2023-03-27T23:04:47.913Z,9.35
2023-03-27T23:07:22.412Z,9.40
2023-03-27T23:09:56.107Z,9.41
2023-03-27T23:12:29.841Z,9.23
2023-03-27T23:15:03.433Z,9.29
2023-03-27T23:17:36.762Z,9.24
2023-03-27T23:20:10.290Z,9.27
2023-03-27T23:22:44.884Z,9.47
2023-03-27T23:25:18.010Z,9.16
2023-03-27T23:27:50.904Z,9.39
2023-03-27T23:30:23.900Z,9.54
2023-03-27T23:32:56.974Z,9.04
2023-03-27T23:35:30.297Z,9.28
2023-03-27T23:38:04.939Z,9.16
2023-03-27T23:40:38.912Z,9.22
2023-03-27T23:43:11.814Z,9.20
2023-03-27T23:45:44.934Z,9.20
2023-03-27T23:48:18.253Z,9.18
2023-03-27T23:50:51.883Z,9.18
2023-03-27T23:53:27.762Z,9.23
2023-03-27T23:56:01.544Z,9.33
2023-03-27T23:58:34.689Z,9.29
